F/V Roger Christian3 — FUFL — position and weather

sailwx.info

Track history (hours):
 
Tides and Currents Weather Stations Pressure Air Temp Water Temp Dewpoint Dewpoint Depression Visibility Wind Speed Wind Dir Waves Ship Positions

F/V Roger Christian3

Last reported at 2014-Jul-30 15:31 UTC. Time now 2014-Jul-30 23:17 UTC.
Position N 43°24' E 003°42'.

Length 24 m.

Type: Fishing. MMSI: 228173800.

Date/timePositionNaut miles runAvg speedWind from/ knotsBaromVisibWave heightAir tempDewpointWater temp
2014-Jul-30 15:31N 43°24' E 003°42'6 6.1
2014-Jul-30 14:32N 43°20' E 003°48'7 6.9
2014-Jul-30 13:30N 43°15' E 003°55'9 4.4
2014-Jul-30 11:33N 43°09' E 004°03'3 3.3
2014-Jul-30 10:31N 43°06' E 004°07'4 4.3
2014-Jul-30 09:29N 43°03' E 004°11'4 4.4
2014-Jul-30 08:30N 43°01' E 004°16'3 2.8
2014-Jul-30 07:30N 42°60' E 004°19'2 2.4
2014-Jul-30 06:32N 42°58' E 004°22'4 3.7
2014-Jul-30 05:33N 42°60' E 004°17'4 4.4
2014-Jul-30 04:33N 43°01' E 004°12'5 4.5
2014-Jul-30 03:31N 43°03' E 004°06'7 6.8
2014-Jul-30 02:33N 43°08' E 003°59'1211.7
2014-Jul-30 01:32N 43°17' E 003°49'9 8.8
2014-Jul-30 00:33N 43°24' E 003°42'0 0.0
2014-Jul-29 23:30N 43°24' E 003°42'0 0.0
2014-Jul-29 22:30N 43°24' E 003°42'0 0.0
2014-Jul-29 21:30N 43°24' E 003°42'0 0.0
2014-Jul-29 20:30N 43°24' E 003°42'0 0.0
2014-Jul-29 19:29N 43°24' E 003°42'0 0.0
2014-Jul-29 18:29N 43°24' E 003°42'0 0.0
2014-Jul-29 17:30N 43°24' E 003°42'0 0.0
2014-Jul-29 16:30N 43°24' E 003°42'0 0.3
2014-Jul-29 15:30N 43°24' E 003°42'1 0.8
2014-Jul-29 14:27N 43°23' E 003°42'1010.9
2014-Jul-29 13:33N 43°15' E 003°50'8 4.2
2014-Jul-29 11:33N 43°09' E 003°59'5 4.5
2014-Jul-29 10:30N 43°06' E 004°03'4 3.8
2014-Jul-29 09:30N 43°05' E 004°08'4 4.4
2014-Jul-29 08:30N 43°02' E 004°13'4 4.4
2014-Jul-29 07:30N 42°60' E 004°18'3 3.2
2014-Jul-29 06:27N 42°58' E 004°22'4 3.9
2014-Jul-29 05:33N 42°59' E 004°17'4 4.4
2014-Jul-29 04:33N 43°01' E 004°12'5 4.5
2014-Jul-29 03:33N 43°04' E 004°07'8 7.4
2014-Jul-29 02:29N 43°09' E 003°59'1011.2
2014-Jul-29 01:33N 43°17' E 003°50'4 0.3
2014-Jul-28 14:19N 43°20' E 003°47'19 5.0
2014-Jul-28 10:30N 43°09' E 004°08'4 3.6
2014-Jul-28 09:25N 43°06' E 004°12'4 4.3
2014-Jul-28 08:29N 43°03' E 004°15'5 4.5
2014-Jul-28 07:26N 42°59' E 004°20'3 3.1
2014-Jul-28 06:33N 42°57' E 004°20'4 3.9
2014-Jul-28 05:24N 42°60' E 004°16'4 4.2
2014-Jul-28 04:33N 43°02' E 004°12'6 4.5
2014-Jul-28 03:18N 43°06' E 004°06'6 8.4
2014-Jul-28 02:32N 43°10' E 003°59'  
2014-Jul-25 22:18N 43°24' E 003°42'0 0.0
2014-Jul-25 14:05N 43°24' E 003°42'9 9.9
2014-Jul-25 13:13N 43°18' E 003°50'5 6.0
2014-Jul-25 12:21N 43°14' E 003°55'8 4.5
2014-Jul-25 10:28N 43°10' E 004°05'3 3.2
2014-Jul-25 09:31N 43°08' E 004°09'5 4.3
2014-Jul-25 08:28N 43°07' E 004°15'4 4.1
2014-Jul-25 07:33N 43°04' E 004°17'4 4.2
2014-Jul-25 06:32N 42°60' E 004°15'4 3.5
2014-Jul-25 05:32N 43°01' E 004°11'4 4.5
2014-Jul-25 04:32N 43°03' E 004°05'5 4.8
2014-Jul-25 03:31N 43°05' E 003°59'5 4.4
2014-Jul-25 02:30N 43°08' E 003°55'1010.7
2014-Jul-25 01:32N 43°17' E 003°47'8 4.0
2014-Jul-24 23:33N 43°24' E 003°42'0 0.0
2014-Jul-24 22:06N 43°24' E 003°42'0 0.0
2014-Jul-24 21:24N 43°24' E 003°42'0 0.0
2014-Jul-24 14:17N 43°24' E 003°42'8 6.8
2014-Jul-24 13:05N 43°18' E 003°50'4 4.0
2014-Jul-24 12:11N 43°17' E 003°54'3 4.3
2014-Jul-24 11:30N 43°16' E 003°58'5 4.4
2014-Jul-24 10:28N 43°13' E 004°04'4 3.8
2014-Jul-24 09:31N 43°12' E 004°08'4 3.9
2014-Jul-24 08:32N 43°09' E 004°11'5 4.5
2014-Jul-24 07:29N 43°04' E 004°13'3 3.4
2014-Jul-24 06:33N 43°02' E 004°11'3 3.2
2014-Jul-24 05:31N 43°02' E 004°06'4 4.2
2014-Jul-24 04:33N 43°03' E 004°01'5 4.5
2014-Jul-24 03:32N 43°07' E 003°57'4 4.5
2014-Jul-24 02:33N 43°11' E 003°55'8 8.1
2014-Jul-24 01:32N 43°18' E 003°48'8 7.6
2014-Jul-24 00:30N 43°24' E 003°42'0 0.0
2014-Jul-23 23:32N 43°24' E 003°42'0 0.0
2014-Jul-23 14:26N 43°24' E 003°42'9 9.9
2014-Jul-23 13:30N 43°19' E 003°53'4 4.4
2014-Jul-23 12:32N 43°17' E 003°58'5 4.6
2014-Jul-23 11:29N 43°14' E 004°04'4 4.5
2014-Jul-23 10:31N 43°12' E 004°09'3 3.1
2014-Jul-23 09:30N 43°10' E 004°12'5 4.5
2014-Jul-23 08:20N 43°05' E 004°15'4 4.4
2014-Jul-23 07:27N 43°02' E 004°17'4 4.0
2014-Jul-23 06:29N 43°00' E 004°12'4 3.4
2014-Jul-23 05:27N 43°01' E 004°07'4 4.3
2014-Jul-23 04:32N 43°02' E 004°02'5 4.3
2014-Jul-23 03:18N 43°05' E 003°56'4 4.5
2014-Jul-23 02:18N 43°09' E 003°53'910.8
2014-Jul-23 01:26N 43°17' E 003°47'8 6.8
2014-Jul-23 00:18N 43°24' E 003°42'0 0.0
2014-Jul-22 23:14N 43°24' E 003°42'15 1.4
2014-Jul-22 12:15N 43°09' E 003°42'3 4.5
2014-Jul-22 11:33N 43°06' E 003°43'4 4.3
2014-Jul-22 10:33N 43°02' E 003°47'3 2.4
2014-Jul-22 09:28N 43°02' E 003°50'4 4.5
2014-Jul-22 08:32N 43°02' E 003°56'6 5.6
2014-Jul-22 07:27N 43°02' E 004°04'2 2.8
2014-Jul-22 06:33N 43°02' E 004°07'29 2.7
2014-Jul-21 20:08N 43°24' E 003°42'2 0.4
2014-Jul-21 14:28N 43°22' E 003°42'8 8.9
2014-Jul-21 13:33N 43°14' E 003°46'14 3.5
2014-Jul-21 09:27N 43°02' E 003°58'8 4.1
2014-Jul-21 07:24N 43°04' E 004°09'4 4.0
2014-Jul-21 06:21N 43°06' E 004°14'3 3.1
2014-Jul-21 05:29N 43°07' E 004°11'4 4.4
2014-Jul-21 04:33N 43°08' E 004°06'5 4.4
2014-Jul-21 03:26N 43°09' E 003°59'4 4.4
2014-Jul-21 02:29N 43°10' E 003°54'7 7.9
2014-Jul-21 01:33N 43°16' E 003°47'9 2.6
2014-Jul-20 22:04N 43°24' E 003°42'0 0.0
2014-Jul-20 20:21N 43°24' E 003°42'0 0.0
2014-Jul-20 19:29N 43°24' E 003°42'  
Track history (hours):
 
Tides and Currents Weather Stations Pressure Air Temp Water Temp Dewpoint Dewpoint Depression Visibility Wind Speed Wind Dir Waves Ship Positions

F/V Roger Christian3

Last reported at 2014-Jul-30 15:31 UTC. Time now 2014-Jul-30 23:17 UTC.
Position N 43°24' E 003°42'.

Length 24 m.

Type: Fishing. MMSI: 228173800.

Date/timePositionNaut miles runAvg speedWind from/ knotsBaromVisibWave heightAir tempDewpointWater temp
2014-Jul-30 15:31N 43°24' E 003°42'6 6.1
2014-Jul-30 14:32N 43°20' E 003°48'7 6.9
2014-Jul-30 13:30N 43°15' E 003°55'9 4.4
2014-Jul-30 11:33N 43°09' E 004°03'3 3.3
2014-Jul-30 10:31N 43°06' E 004°07'4 4.3
2014-Jul-30 09:29N 43°03' E 004°11'4 4.4
2014-Jul-30 08:30N 43°01' E 004°16'3 2.8
2014-Jul-30 07:30N 42°60' E 004°19'2 2.4
2014-Jul-30 06:32N 42°58' E 004°22'4 3.7
2014-Jul-30 05:33N 42°60' E 004°17'4 4.4
2014-Jul-30 04:33N 43°01' E 004°12'5 4.5
2014-Jul-30 03:31N 43°03' E 004°06'7 6.8
2014-Jul-30 02:33N 43°08' E 003°59'1211.7
2014-Jul-30 01:32N 43°17' E 003°49'9 8.8
2014-Jul-30 00:33N 43°24' E 003°42'0 0.0
2014-Jul-29 23:30N 43°24' E 003°42'0 0.0
2014-Jul-29 22:30N 43°24' E 003°42'0 0.0
2014-Jul-29 21:30N 43°24' E 003°42'0 0.0
2014-Jul-29 20:30N 43°24' E 003°42'0 0.0
2014-Jul-29 19:29N 43°24' E 003°42'0 0.0
2014-Jul-29 18:29N 43°24' E 003°42'0 0.0
2014-Jul-29 17:30N 43°24' E 003°42'0 0.0
2014-Jul-29 16:30N 43°24' E 003°42'0 0.3
2014-Jul-29 15:30N 43°24' E 003°42'1 0.8
2014-Jul-29 14:27N 43°23' E 003°42'1010.9
2014-Jul-29 13:33N 43°15' E 003°50'8 4.2
2014-Jul-29 11:33N 43°09' E 003°59'5 4.5
2014-Jul-29 10:30N 43°06' E 004°03'4 3.8
2014-Jul-29 09:30N 43°05' E 004°08'4 4.4
2014-Jul-29 08:30N 43°02' E 004°13'4 4.4
2014-Jul-29 07:30N 42°60' E 004°18'3 3.2
2014-Jul-29 06:27N 42°58' E 004°22'4 3.9
2014-Jul-29 05:33N 42°59' E 004°17'4 4.4
2014-Jul-29 04:33N 43°01' E 004°12'5 4.5
2014-Jul-29 03:33N 43°04' E 004°07'8 7.4
2014-Jul-29 02:29N 43°09' E 003°59'1011.2
2014-Jul-29 01:33N 43°17' E 003°50'4 0.3
2014-Jul-28 14:19N 43°20' E 003°47'19 5.0
2014-Jul-28 10:30N 43°09' E 004°08'4 3.6
2014-Jul-28 09:25N 43°06' E 004°12'4 4.3
2014-Jul-28 08:29N 43°03' E 004°15'5 4.5
2014-Jul-28 07:26N 42°59' E 004°20'3 3.1
2014-Jul-28 06:33N 42°57' E 004°20'4 3.9
2014-Jul-28 05:24N 42°60' E 004°16'4 4.2
2014-Jul-28 04:33N 43°02' E 004°12'6 4.5
2014-Jul-28 03:18N 43°06' E 004°06'6 8.4
2014-Jul-28 02:32N 43°10' E 003°59'  
2014-Jul-25 22:18N 43°24' E 003°42'0 0.0
2014-Jul-25 14:05N 43°24' E 003°42'9 9.9
2014-Jul-25 13:13N 43°18' E 003°50'5 6.0
2014-Jul-25 12:21N 43°14' E 003°55'8 4.5
2014-Jul-25 10:28N 43°10' E 004°05'3 3.2
2014-Jul-25 09:31N 43°08' E 004°09'5 4.3
2014-Jul-25 08:28N 43°07' E 004°15'4 4.1
2014-Jul-25 07:33N 43°04' E 004°17'4 4.2
2014-Jul-25 06:32N 42°60' E 004°15'4 3.5
2014-Jul-25 05:32N 43°01' E 004°11'4 4.5
2014-Jul-25 04:32N 43°03' E 004°05'5 4.8
2014-Jul-25 03:31N 43°05' E 003°59'5 4.4
2014-Jul-25 02:30N 43°08' E 003°55'1010.7
2014-Jul-25 01:32N 43°17' E 003°47'8 4.0
2014-Jul-24 23:33N 43°24' E 003°42'0 0.0
2014-Jul-24 22:06N 43°24' E 003°42'0 0.0
2014-Jul-24 21:24N 43°24' E 003°42'0 0.0
2014-Jul-24 14:17N 43°24' E 003°42'8 6.8
2014-Jul-24 13:05N 43°18' E 003°50'4 4.0
2014-Jul-24 12:11N 43°17' E 003°54'3 4.3
2014-Jul-24 11:30N 43°16' E 003°58'5 4.4
2014-Jul-24 10:28N 43°13' E 004°04'4 3.8
2014-Jul-24 09:31N 43°12' E 004°08'4 3.9
2014-Jul-24 08:32N 43°09' E 004°11'5 4.5
2014-Jul-24 07:29N 43°04' E 004°13'3 3.4
2014-Jul-24 06:33N 43°02' E 004°11'3 3.2
2014-Jul-24 05:31N 43°02' E 004°06'4 4.2
2014-Jul-24 04:33N 43°03' E 004°01'5 4.5
2014-Jul-24 03:32N 43°07' E 003°57'4 4.5
2014-Jul-24 02:33N 43°11' E 003°55'8 8.1
2014-Jul-24 01:32N 43°18' E 003°48'8 7.6
2014-Jul-24 00:30N 43°24' E 003°42'0 0.0
2014-Jul-23 23:32N 43°24' E 003°42'0 0.0
2014-Jul-23 14:26N 43°24' E 003°42'9 9.9
2014-Jul-23 13:30N 43°19' E 003°53'4 4.4
2014-Jul-23 12:32N 43°17' E 003°58'5 4.6
2014-Jul-23 11:29N 43°14' E 004°04'4 4.5
2014-Jul-23 10:31N 43°12' E 004°09'3 3.1
2014-Jul-23 09:30N 43°10' E 004°12'5 4.5
2014-Jul-23 08:20N 43°05' E 004°15'4 4.4
2014-Jul-23 07:27N 43°02' E 004°17'4 4.0
2014-Jul-23 06:29N 43°00' E 004°12'4 3.4
2014-Jul-23 05:27N 43°01' E 004°07'4 4.3
2014-Jul-23 04:32N 43°02' E 004°02'5 4.3
2014-Jul-23 03:18N 43°05' E 003°56'4 4.5
2014-Jul-23 02:18N 43°09' E 003°53'910.8
2014-Jul-23 01:26N 43°17' E 003°47'8 6.8
2014-Jul-23 00:18N 43°24' E 003°42'0 0.0
2014-Jul-22 23:14N 43°24' E 003°42'15 1.4
2014-Jul-22 12:15N 43°09' E 003°42'3 4.5
2014-Jul-22 11:33N 43°06' E 003°43'4 4.3
2014-Jul-22 10:33N 43°02' E 003°47'3 2.4
2014-Jul-22 09:28N 43°02' E 003°50'4 4.5
2014-Jul-22 08:32N 43°02' E 003°56'6 5.6
2014-Jul-22 07:27N 43°02' E 004°04'2 2.8
2014-Jul-22 06:33N 43°02' E 004°07'29 2.7
2014-Jul-21 20:08N 43°24' E 003°42'2 0.4
2014-Jul-21 14:28N 43°22' E 003°42'8 8.9
2014-Jul-21 13:33N 43°14' E 003°46'14 3.5
2014-Jul-21 09:27N 43°02' E 003°58'8 4.1
2014-Jul-21 07:24N 43°04' E 004°09'4 4.0
2014-Jul-21 06:21N 43°06' E 004°14'3 3.1
2014-Jul-21 05:29N 43°07' E 004°11'4 4.4
2014-Jul-21 04:33N 43°08' E 004°06'5 4.4
2014-Jul-21 03:26N 43°09' E 003°59'4 4.4
2014-Jul-21 02:29N 43°10' E 003°54'7 7.9
2014-Jul-21 01:33N 43°16' E 003°47'9 2.6
2014-Jul-20 22:04N 43°24' E 003°42'0 0.0
2014-Jul-20 20:21N 43°24' E 003°42'0 0.0
2014-Jul-20 19:29N 43°24' E 003°42'  

Dump ship's entire track history